Time;durP1;ratioP1;P1;durP2;ratioP2;P2;SDS_P1;SDS_P2;PMS_P1;PMS_P2;Temp;Humidity;BMP_temperature;BMP_pressure;BME280_temperature;BME280_humidity;BME280_pressure;Samples;Min_cycle;Max_cycle;Signal;HPM_P1;HPM_P2
2021/04/30 00:01:49;;;;;;;10.70;6.82;;;9.40;99.90;;;;;;5013729;28;20516;-71
2021/04/30 00:04:15;;;;;;;7.63;6.82;;;9.40;99.90;;;;;;5013059;28;20026;-70
2021/04/30 00:06:40;;;;;;;6.82;6.13;;;9.40;99.90;;;;;;5012722;28;20038;-70
2021/04/30 00:09:06;;;;;;;7.97;7.18;;;9.40;99.90;;;;;;5011954;28;20396;-71
2021/04/30 00:11:32;;;;;;;9.05;7.32;;;9.30;99.90;;;;;;5011683;28;20032;-71
2021/04/30 00:13:58;;;;;;;8.82;6.93;;;9.40;99.90;;;;;;5011427;28;20037;-71
2021/04/30 00:16:23;;;;;;;7.38;6.68;;;9.40;99.90;;;;;;5011552;28;20101;-71
2021/04/30 00:18:49;;;;;;;7.70;6.93;;;9.30;99.90;;;;;;5011853;28;20034;-70
2021/04/30 00:21:15;;;;;;;8.48;6.95;;;9.10;99.90;;;;;;5011804;28;20498;-71
2021/04/30 00:23:40;;;;;;;8.98;8.10;;;9.20;99.90;;;;;;5010867;28;20042;-71
2021/04/30 00:26:07;;;;;;;8.45;7.55;;;9.30;99.90;;;;;;5011520;28;20037;-71
2021/04/30 00:28:33;;;;;;;9.60;8.48;;;9.20;99.90;;;;;;5011940;28;20049;-70
2021/04/30 00:31:00;;;;;;;8.32;7.57;;;9.20;99.90;;;;;;5011518;28;20381;-71
2021/04/30 00:33:27;;;;;;;10.23;8.25;;;9.10;99.90;;;;;;5011055;28;20373;-71
2021/04/30 00:35:54;;;;;;;10.65;9.55;;;9.10;99.90;;;;;;5010804;28;20022;-70
2021/04/30 00:38:20;;;;;;;11.45;10.30;;;9.30;99.90;;;;;;5011549;28;20037;-70
2021/04/30 00:40:47;;;;;;;12.45;10.90;;;9.30;99.90;;;;;;5011362;28;20033;-70
2021/04/30 00:43:13;;;;;;;14.27;10.23;;;9.20;99.90;;;;;;5010939;28;20576;-71
2021/04/30 00:45:39;;;;;;;15.32;10.55;;;9.10;99.90;;;;;;5011436;28;20215;-70
2021/04/30 00:48:08;;;;;;;11.38;10.13;;;9.10;99.90;;;;;;5011489;28;20025;-70
2021/04/30 00:50:34;;;;;;;12.68;10.75;;;9.10;99.90;;;;;;5011072;28;20018;-71
2021/04/30 00:52:59;;;;;;;12.68;10.60;;;9.00;99.90;;;;;;4993147;28;20661;-71
2021/04/30 00:55:25;;;;;;;12.05;10.75;;;8.90;99.90;;;;;;5011706;28;20037;-71
2021/04/30 00:57:54;;;;;;;12.48;11.18;;;8.90;99.90;;;;;;5011556;28;20025;-71
2021/04/30 01:00:21;;;;;;;11.07;10.00;;;9.00;99.90;;;;;;5011222;28;20030;-71
2021/04/30 01:02:47;;;;;;;12.68;10.70;;;8.90;99.90;;;;;;5012605;28;20018;-71
2021/04/30 01:05:13;;;;;;;14.73;11.40;;;8.80;99.90;;;;;;5010692;28;20578;-71
2021/04/30 01:07:39;;;;;;;17.42;12.98;;;8.90;99.90;;;;;;5011424;28;20041;-71
2021/04/30 01:10:05;;;;;;;12.95;11.55;;;9.00;99.90;;;;;;5011282;28;20026;-70
2021/04/30 01:12:32;;;;;;;16.80;13.27;;;8.90;99.90;;;;;;5011253;28;20122;-71
2021/04/30 01:14:58;;;;;;;16.55;13.52;;;8.80;99.90;;;;;;5010533;28;20037;-71
2021/04/30 01:17:24;;;;;;;16.85;13.80;;;8.90;99.90;;;;;;5010651;28;20045;-70
2021/04/30 01:19:50;;;;;;;15.18;13.23;;;8.90;99.90;;;;;;5011108;28;20034;-70
2021/04/30 01:22:35;;;;;;;16.70;13.48;;;8.80;99.90;;;;;;5010919;28;20057;-71
2021/04/30 01:25:02;;;;;;;15.70;13.52;;;8.80;99.90;;;;;;4992885;28;20028;-72
2021/04/30 01:27:28;;;;;;;18.77;14.05;;;8.80;99.90;;;;;;5014919;28;20384;-71
2021/04/30 01:29:53;;;;;;;18.30;13.18;;;8.70;99.90;;;;;;5015795;28;20072;-73
2021/04/30 01:32:19;;;;;;;15.65;13.32;;;8.70;99.90;;;;;;5016621;28;20030;-70
2021/04/30 01:34:45;;;;;;;15.25;13.65;;;8.70;99.90;;;;;;5015353;28;20076;-71
2021/04/30 01:37:11;;;;;;;17.65;15.15;;;8.80;99.90;;;;;;5016083;28;20030;-72
2021/04/30 01:39:36;;;;;;;16.08;14.38;;;8.70;99.90;;;;;;5015778;28;20022;-71
2021/04/30 01:42:05;;;;;;;15.45;13.75;;;8.70;99.90;;;;;;5015330;28;20427;-71
2021/04/30 01:44:31;;;;;;;20.27;14.82;;;8.60;99.90;;;;;;5013701;28;20105;-70
2021/04/30 01:46:59;;;;;;;16.58;12.38;;;8.60;99.90;;;;;;5014614;28;20109;-70
2021/04/30 01:49:25;;;;;;;15.05;12.50;;;8.30;99.90;;;;;;5014426;28;20025;-70
2021/04/30 01:51:51;;;;;;;14.07;12.20;;;8.10;99.90;;;;;;5014068;28;20018;-70
2021/04/30 01:54:17;;;;;;;13.75;12.05;;;8.00;99.90;;;;;;5013812;28;20033;-71
2021/04/30 01:56:42;;;;;;;13.82;12.32;;;8.00;99.90;;;;;;5014311;28;20018;-71
2021/04/30 01:59:08;;;;;;;16.80;13.70;;;7.90;99.90;;;;;;5014601;28;20041;-71
2021/04/30 02:01:34;;;;;;;21.23;17.15;;;8.20;99.90;;;;;;5014083;28;20045;-71
2021/04/30 02:04:00;;;;;;;18.08;15.70;;;8.20;99.90;;;;;;5013467;28;20353;-72
2021/04/30 02:06:26;;;;;;;19.42;15.18;;;8.40;99.90;;;;;;5013580;28;20037;-72
2021/04/30 02:08:54;;;;;;;18.17;15.80;;;8.40;99.90;;;;;;5013455;28;20030;-72
2021/04/30 02:11:20;;;;;;;17.60;15.73;;;8.50;99.90;;;;;;5014058;28;20030;-72
2021/04/30 02:13:46;;;;;;;18.98;15.05;;;8.40;99.90;;;;;;5056270;23;20124;-72
2021/04/30 02:16:11;;;;;;;18.67;15.75;;;8.30;99.90;;;;;;5031610;28;20383;-72
2021/04/30 02:18:37;;;;;;;20.02;15.60;;;8.30;99.90;;;;;;5034168;28;20067;-72
2021/04/30 02:21:03;;;;;;;22.73;16.33;;;8.20;99.90;;;;;;5034031;28;20045;-71
2021/04/30 02:23:28;;;;;;;16.23;14.50;;;8.20;99.90;;;;;;5032765;28;20400;-72
2021/04/30 02:25:54;;;;;;;18.75;15.48;;;8.20;99.90;;;;;;5033461;28;20064;-72
2021/04/30 02:28:20;;;;;;;20.05;16.27;;;8.10;99.90;;;;;;5033124;28;20392;-72
2021/04/30 02:30:45;;;;;;;18.20;14.68;;;8.10;99.90;;;;;;4996333;28;20034;-72
2021/04/30 02:33:12;;;;;;;20.90;15.90;;;8.10;99.90;;;;;;5012732;28;20060;-72
2021/04/30 02:35:44;;;;;;;22.88;18.45;;;8.20;99.90;;;;;;5013515;28;20035;-72
2021/04/30 02:38:12;;;;;;;25.95;19.38;;;8.30;99.90;;;;;;5012671;28;20104;-71
2021/04/30 02:40:39;;;;;;;28.00;19.98;;;8.20;99.90;;;;;;5013593;28;20069;-72
2021/04/30 02:43:08;;;;;;;25.67;20.30;;;8.20;99.90;;;;;;5012852;28;20036;-72
2021/04/30 02:45:34;;;;;;;29.92;21.17;;;8.10;99.90;;;;;;4995509;28;20479;-71
2021/04/30 02:48:00;;;;;;;27.25;20.00;;;8.10;99.90;;;;;;5013067;28;20059;-71
2021/04/30 02:50:29;;;;;;;26.02;19.92;;;8.10;99.90;;;;;;5013555;28;20065;-72
2021/04/30 02:52:55;;;;;;;24.98;20.00;;;8.10;99.90;;;;;;5013032;28;20404;-72
2021/04/30 02:55:23;;;;;;;23.42;18.92;;;8.10;99.90;;;;;;5013486;28;20414;-72
2021/04/30 02:57:53;;;;;;;24.27;19.33;;;8.00;99.90;;;;;;5013389;28;20029;-71
2021/04/30 03:00:20;;;;;;;29.00;21.30;;;8.10;99.90;;;;;;5012790;28;20014;-72
2021/04/30 03:02:46;;;;;;;28.55;21.55;;;7.90;99.90;;;;;;5012523;28;20062;-72
2021/04/30 03:05:13;;;;;;;26.33;20.42;;;8.00;99.90;;;;;;5012571;28;20104;-71
2021/04/30 03:07:38;;;;;;;24.17;18.55;;;8.00;99.90;;;;;;5012843;28;20029;-72
2021/04/30 03:10:05;;;;;;;24.85;18.30;;;8.10;99.90;;;;;;4995403;28;20559;-72
2021/04/30 03:12:31;;;;;;;23.55;16.88;;;8.10;99.90;;;;;;5012656;28;20030;-73
2021/04/30 03:14:57;;;;;;;21.50;17.50;;;8.10;99.90;;;;;;5012782;28;20468;-72
2021/04/30 03:17:22;;;;;;;22.73;17.67;;;8.20;99.90;;;;;;5020097;28;20026;-72
2021/04/30 03:19:48;;;;;;;22.17;17.90;;;8.20;99.90;;;;;;5014576;28;20510;-71
2021/04/30 03:22:14;;;;;;;25.63;17.70;;;8.10;99.90;;;;;;5016965;28;20030;-72
2021/04/30 03:24:39;;;;;;;21.55;17.15;;;8.20;99.90;;;;;;5002787;28;20030;-72
2021/04/30 03:27:05;;;;;;;23.92;18.35;;;8.20;99.90;;;;;;5014341;28;20059;-72
2021/04/30 03:29:31;;;;;;;22.63;18.23;;;8.20;99.90;;;;;;5012635;28;20022;-73
2021/04/30 03:31:57;;;;;;;21.25;17.05;;;8.20;99.90;;;;;;5012453;28;20030;-73
2021/04/30 03:34:22;;;;;;;21.70;16.90;;;8.20;99.90;;;;;;4994017;28;20153;-73
2021/04/30 03:36:48;;;;;;;20.13;15.52;;;8.10;99.90;;;;;;5012338;28;20029;-73
2021/04/30 03:39:14;;;;;;;22.98;17.27;;;8.10;99.90;;;;;;5012407;28;20026;-73
2021/04/30 03:41:39;;;;;;;21.15;17.33;;;8.20;99.90;;;;;;5012220;28;20026;-73
2021/04/30 03:44:05;;;;;;;24.50;17.90;;;8.20;99.90;;;;;;5011100;28;20026;-72
2021/04/30 03:46:31;;;;;;;23.42;18.50;;;8.20;99.90;;;;;;5012041;28;20091;-71
2021/04/30 03:48:57;;;;;;;25.17;20.48;;;8.10;99.90;;;;;;5012022;28;20104;-73
2021/04/30 03:51:22;;;;;;;28.63;19.95;;;8.20;99.90;;;;;;5011946;28;20200;-72
2021/04/30 03:53:48;;;;;;;21.45;17.58;;;8.20;99.90;;;;;;5011415;28;20049;-72
2021/04/30 03:56:14;;;;;;;26.13;18.92;;;8.10;99.90;;;;;;5012058;28;20029;-73
2021/04/30 03:58:39;;;;;;;24.50;19.15;;;7.90;99.90;;;;;;5011771;28;20104;-73
2021/04/30 04:01:06;;;;;;;27.00;21.33;;;8.00;99.90;;;;;;5011949;28;20030;-72
2021/04/30 04:03:33;;;;;;;26.15;20.73;;;8.10;99.90;;;;;;4993566;28;20037;-72
2021/04/30 04:05:58;;;;;;;25.23;20.00;;;8.10;99.90;;;;;;5011825;28;20030;-72
2021/04/30 04:08:24;;;;;;;24.70;18.90;;;8.10;99.90;;;;;;5011245;28;20105;-72
2021/04/30 04:10:50;;;;;;;26.48;20.60;;;8.10;99.90;;;;;;5011897;28;20057;-73
2021/04/30 04:13:16;;;;;;;26.27;20.52;;;8.10;99.90;;;;;;4993262;28;20144;-72
2021/04/30 04:15:47;;;;;;;26.65;19.42;;;8.20;99.90;;;;;;5011927;28;20037;-71
2021/04/30 04:18:13;;;;;;;28.63;19.92;;;8.10;99.90;;;;;;5012153;28;20468;-71
2021/04/30 04:20:39;;;;;;;33.10;19.17;;;8.10;99.90;;;;;;5011656;28;20040;-72
2021/04/30 04:23:06;;;;;;;25.58;19.85;;;8.00;99.90;;;;;;5010415;28;20029;-71
2021/04/30 04:25:32;;;;;;;29.85;21.17;;;8.10;99.90;;;;;;4999959;28;20049;-73
2021/04/30 04:27:58;;;;;;;30.08;20.50;;;8.20;99.90;;;;;;5023394;28;20032;-72
2021/04/30 04:30:24;;;;;;;27.23;21.20;;;8.30;99.90;;;;;;5000735;28;20340;-71
2021/04/30 04:32:50;;;;;;;28.73;21.63;;;8.40;99.90;;;;;;5018757;28;20030;-73
2021/04/30 04:35:16;;;;;;;23.73;19.80;;;8.30;99.90;;;;;;5001600;28;20093;-72
2021/04/30 04:37:42;;;;;;;28.67;20.92;;;8.20;99.90;;;;;;5019104;28;20071;-72
2021/04/30 04:40:08;;;;;;;25.10;19.20;;;8.30;99.90;;;;;;5019427;28;20111;-72
2021/04/30 04:42:34;;;;;;;27.20;20.55;;;8.40;99.90;;;;;;5019495;28;20424;-72
2021/04/30 04:44:59;;;;;;;28.70;22.15;;;8.40;99.90;;;;;;5019990;28;20034;-71
2021/04/30 04:47:25;;;;;;;28.73;21.23;;;8.40;99.90;;;;;;5020261;28;20033;-72
2021/04/30 04:49:51;;;;;;;25.98;20.20;;;8.30;99.90;;;;;;5020011;28;20033;-72
2021/04/30 04:52:16;;;;;;;24.90;19.10;;;8.20;99.90;;;;;;5019222;28;20029;-71
2021/04/30 04:54:42;;;;;;;26.00;19.58;;;8.10;99.90;;;;;;5018266;28;20045;-72
2021/04/30 04:57:08;;;;;;;23.42;18.40;;;8.20;99.90;;;;;;5019656;28;20030;-71
2021/04/30 04:59:34;;;;;;;20.77;17.98;;;8.20;99.90;;;;;;5019740;28;20034;-73
2021/04/30 05:01:59;;;;;;;25.23;18.95;;;8.30;99.90;;;;;;5005460;28;20029;-71
2021/04/30 05:04:25;;;;;;;24.45;18.98;;;8.40;99.90;;;;;;5022404;28;20041;-74
2021/04/30 05:06:51;;;;;;;21.58;17.83;;;8.50;99.90;;;;;;5022180;28;20029;-71
2021/04/30 05:09:16;;;;;;;24.02;18.63;;;8.50;99.90;;;;;;5022603;28;20026;-73
2021/04/30 05:11:42;;;;;;;21.55;17.58;;;8.40;99.90;;;;;;5021338;28;20025;-71
2021/04/30 05:14:08;;;;;;;22.27;17.27;;;8.50;99.90;;;;;;5021775;28;20401;-71
2021/04/30 05:16:33;;;;;;;74.43;20.65;;;8.40;99.90;;;;;;5003433;28;20033;-71
2021/04/30 05:18:59;;;;;;;29.52;17.50;;;8.60;99.90;;;;;;5022324;28;20028;-70
2021/04/30 05:21:25;;;;;;;45.88;17.92;;;8.70;99.90;;;;;;5021602;28;20030;-71
2021/04/30 05:23:52;;;;;;;39.05;17.23;;;8.40;99.90;;;;;;5004369;28;20117;-71
2021/04/30 05:26:18;;;;;;;21.00;15.38;;;8.50;99.90;;;;;;5021405;28;20544;-71
2021/04/30 05:28:43;;;;;;;19.08;14.65;;;8.70;99.90;;;;;;5021973;28;20030;-71
2021/04/30 05:31:09;;;;;;;17.65;13.27;;;8.70;99.90;;;;;;5021607;28;20514;-71
2021/04/30 05:33:34;;;;;;;15.77;12.85;;;8.60;99.90;;;;;;5020518;28;20018;-71
2021/04/30 05:36:00;;;;;;;14.85;12.40;;;8.50;99.90;;;;;;5022983;28;20028;-74
2021/04/30 05:38:26;;;;;;;17.30;14.10;;;8.60;99.90;;;;;;5024275;28;20092;-74
2021/04/30 05:40:52;;;;;;;15.73;12.88;;;8.80;99.90;;;;;;5004542;28;20026;-76
2021/04/30 05:43:18;;;;;;;15.63;12.38;;;8.90;99.90;;;;;;5020889;28;20028;-76
2021/04/30 05:45:46;;;;;;;16.20;13.27;;;9.00;99.90;;;;;;5022505;28;20025;-75
2021/04/30 05:48:12;;;;;;;17.95;13.68;;;9.10;99.90;;;;;;5022226;28;20365;-73
2021/04/30 05:50:37;;;;;;;16.70;13.60;;;9.10;99.90;;;;;;5022015;28;20075;-73
2021/04/30 05:53:03;;;;;;;17.02;13.20;;;9.30;99.90;;;;;;5021276;28;20034;-71
2021/04/30 05:55:42;;;;;;;19.65;13.55;;;9.30;99.90;;;;;;5021849;28;20435;-72
2021/04/30 05:58:08;;;;;;;15.43;11.95;;;9.20;99.90;;;;;;5024687;28;20037;-74
2021/04/30 06:00:33;;;;;;;16.27;13.02;;;9.20;99.90;;;;;;5027704;28;20371;-72
2021/04/30 06:02:59;;;;;;;14.32;12.35;;;9.30;99.90;;;;;;5023137;28;20108;-73
2021/04/30 06:05:25;;;;;;;15.75;12.65;;;8.90;99.90;;;;;;5028567;28;20565;-73
2021/04/30 06:07:50;;;;;;;19.42;13.73;;;8.70;99.90;;;;;;5006878;28;20045;-73
2021/04/30 06:10:16;;;;;;;18.08;13.70;;;8.80;99.90;;;;;;5006079;28;20060;-73
2021/04/30 06:12:42;;;;;;;15.30;12.80;;;8.70;99.90;;;;;;5022469;28;20407;-72
2021/04/30 06:15:08;;;;;;;15.57;13.07;;;8.80;99.90;;;;;;5023099;28;20483;-73
2021/04/30 06:17:34;;;;;;;19.90;13.23;;;9.00;99.90;;;;;;5006430;28;20049;-73
2021/04/30 06:19:59;;;;;;;14.52;12.13;;;9.20;99.90;;;;;;5023002;28;20075;-74
2021/04/30 06:22:25;;;;;;;16.63;11.95;;;9.30;99.90;;;;;;5023067;28;20029;-74
2021/04/30 06:24:51;;;;;;;13.85;11.27;;;9.30;99.90;;;;;;5021546;28;20037;-74
2021/04/30 06:27:17;;;;;;;14.43;11.65;;;9.40;99.90;;;;;;5022055;28;20033;-75
2021/04/30 06:29:46;;;;;;;12.50;11.15;;;9.10;99.90;;;;;;5006643;28;20049;-73
2021/04/30 06:32:12;;;;;;;14.30;11.02;;;9.10;99.90;;;;;;5003362;28;20026;-74
2021/04/30 06:34:37;;;;;;;12.65;11.23;;;9.00;99.90;;;;;;5021234;28;20030;-73
2021/04/30 06:37:03;;;;;;;18.92;11.13;;;9.10;99.90;;;;;;5021354;28;20021;-75
2021/04/30 06:39:29;;;;;;;13.23;11.27;;;9.30;99.90;;;;;;5022207;28;20026;-73
2021/04/30 06:41:56;;;;;;;14.75;11.05;;;9.20;99.90;;;;;;5021057;28;20529;-74
2021/04/30 06:44:22;;;;;;;16.27;10.60;;;9.40;99.90;;;;;;5002676;28;20422;-73
2021/04/30 06:46:48;;;;;;;15.75;11.00;;;9.30;99.90;;;;;;5025119;28;20033;-73
2021/04/30 06:49:14;;;;;;;16.50;10.98;;;9.40;99.90;;;;;;5022435;28;20034;-72
2021/04/30 06:51:39;;;;;;;16.30;10.52;;;9.30;99.90;;;;;;5019069;28;20048;-73
2021/04/30 06:54:05;;;;;;;12.95;11.05;;;9.30;99.90;;;;;;5020360;28;20087;-72
2021/04/30 06:56:31;;;;;;;13.52;11.57;;;9.40;99.90;;;;;;5004609;28;20045;-72
2021/04/30 06:58:58;;;;;;;12.23;10.93;;;9.30;99.90;;;;;;5022263;28;20117;-74
2021/04/30 07:01:24;;;;;;;13.50;12.07;;;9.20;99.90;;;;;;5022420;28;20061;-75
2021/04/30 07:03:50;;;;;;;13.18;11.13;;;9.50;99.90;;;;;;5024109;28;20395;-74
2021/04/30 07:06:18;;;;;;;13.13;10.82;;;9.50;99.90;;;;;;5023076;28;20021;-74
2021/04/30 07:08:44;;;;;;;13.52;11.13;;;9.60;99.90;;;;;;5006691;28;20049;-74
2021/04/30 07:11:10;;;;;;;15.70;10.60;;;9.60;99.90;;;;;;5021388;28;20052;-74
2021/04/30 07:13:36;;;;;;;13.23;10.25;;;9.50;99.90;;;;;;5020211;28;20471;-74
2021/04/30 07:16:05;;;;;;;12.30;10.23;;;9.50;99.90;;;;;;5022048;28;20025;-74
2021/04/30 07:18:31;;;;;;;12.02;10.70;;;9.60;99.90;;;;;;5003044;28;20026;-72
2021/04/30 07:20:57;;;;;;;13.55;11.15;;;9.70;99.90;;;;;;5019405;28;20079;-73
2021/04/30 07:23:23;;;;;;;11.98;10.02;;;9.80;99.90;;;;;;5021133;28;20037;-73
2021/04/30 07:25:49;;;;;;;13.18;10.30;;;9.80;99.90;;;;;;5020908;28;20026;-75
2021/04/30 07:28:15;;;;;;;11.75;9.73;;;9.80;99.90;;;;;;5019874;28;20032;-74
2021/04/30 07:30:41;;;;;;;12.57;10.23;;;9.90;99.90;;;;;;5002882;28;20021;-73
2021/04/30 07:33:07;;;;;;;11.68;9.25;;;9.80;99.90;;;;;;5017475;28;20484;-76
2021/04/30 07:35:32;;;;;;;13.07;10.40;;;9.70;99.90;;;;;;5011605;28;20034;-75
2021/04/30 07:37:58;;;;;;;10.60;9.45;;;9.80;99.90;;;;;;4995494;28;20109;-75
2021/04/30 07:40:24;;;;;;;11.77;9.77;;;10.00;99.90;;;;;;4994037;28;20494;-74
2021/04/30 07:42:50;;;;;;;14.60;10.02;;;10.10;99.90;;;;;;5012831;28;20278;-75
2021/04/30 07:45:16;;;;;;;14.40;9.32;;;9.80;99.90;;;;;;5011841;28;20619;-73
2021/04/30 07:47:43;;;;;;;11.88;9.85;;;9.80;99.90;;;;;;5011676;28;20038;-73
2021/04/30 07:50:09;;;;;;;15.68;10.40;;;9.80;99.90;;;;;;5020096;28;21388;-75
2021/04/30 07:52:35;;;;;;;17.27;11.43;;;9.60;99.90;;;;;;5020847;28;20077;-74
2021/04/30 07:55:01;;;;;;;12.85;9.75;;;9.80;99.90;;;;;;5009816;28;20113;-74
2021/04/30 07:57:31;;;;;;;14.10;10.35;;;9.80;99.90;;;;;;5031182;28;20053;-73
2021/04/30 07:59:57;;;;;;;12.75;10.50;;;9.70;99.90;;;;;;5033522;28;20211;-74
2021/04/30 08:02:23;;;;;;;13.70;10.63;;;9.50;99.90;;;;;;5038052;28;20049;-74
2021/04/30 08:04:49;;;;;;;17.70;10.55;;;9.30;99.90;;;;;;5019864;28;20104;-75
2021/04/30 08:07:15;;;;;;;13.38;10.43;;;9.30;99.90;;;;;;5016932;28;20064;-74
2021/04/30 08:09:41;;;;;;;14.05;11.80;;;9.50;99.90;;;;;;5012320;28;20026;-74
2021/04/30 08:12:08;;;;;;;14.77;10.77;;;9.70;99.90;;;;;;5012434;28;20113;-73
2021/04/30 08:14:34;;;;;;;14.88;11.27;;;9.90;99.90;;;;;;5011579;28;20034;-73
2021/04/30 08:16:59;;;;;;;11.98;10.43;;;10.10;99.90;;;;;;5012320;28;20495;-74
2021/04/30 08:19:26;;;;;;;15.00;10.77;;;10.10;99.90;;;;;;5022740;28;20768;-73
2021/04/30 08:21:52;;;;;;;13.43;10.85;;;9.90;99.90;;;;;;5011348;28;20511;-75
2021/04/30 08:24:19;;;;;;;14.98;10.38;;;9.90;99.90;;;;;;5011212;28;20203;-74
2021/04/30 08:26:45;;;;;;;14.02;10.23;;;10.30;99.90;;;;;;5011801;28;20049;-73
2021/04/30 08:29:10;;;;;;;12.40;10.55;;;10.20;99.90;;;;;;5012538;28;20096;-76
2021/04/30 08:31:37;;;;;;;12.85;9.85;;;10.20;99.90;;;;;;5014014;28;20120;-75
2021/04/30 08:34:03;;;;;;;13.05;10.32;;;10.60;99.90;;;;;;4996961;28;20030;-74
2021/04/30 08:36:29;;;;;;;12.98;10.95;;;11.10;99.90;;;;;;5012138;28;20041;-74
2021/04/30 08:38:58;;;;;;;12.50;10.48;;;11.30;99.90;;;;;;5003373;28;20108;-73
2021/04/30 08:41:26;;;;;;;14.18;10.73;;;11.00;99.90;;;;;;5002990;28;20037;-75
2021/04/30 08:43:52;;;;;;;15.63;10.90;;;11.40;99.90;;;;;;5018171;28;20049;-73
2021/04/30 08:46:19;;;;;;;17.23;11.93;;;11.50;99.90;;;;;;4999016;28;20025;-75
2021/04/30 08:48:45;;;;;;;10.80;9.68;;;11.60;99.90;;;;;;5001668;28;20025;-75
2021/04/30 08:51:12;;;;;;;13.57;11.13;;;11.70;99.90;;;;;;4999422;28;20103;-73
2021/04/30 08:53:41;;;;;;;17.00;11.10;;;12.10;99.90;;;;;;5016848;28;20042;-74
2021/04/30 08:56:07;;;;;;;11.35;10.15;;;12.20;99.90;;;;;;5031019;28;20025;-75
2021/04/30 08:58:36;;;;;;;12.95;10.18;;;11.30;99.90;;;;;;5036896;28;20024;-73
2021/04/30 09:01:03;;;;;;;14.48;10.48;;;11.30;99.90;;;;;;5037565;28;20467;-75
2021/04/30 09:03:29;;;;;;;11.80;9.20;;;11.50;99.90;;;;;;5015741;28;20021;-73
2021/04/30 09:05:55;;;;;;;13.25;10.13;;;11.30;99.90;;;;;;5015599;28;20480;-76
2021/04/30 09:08:23;;;;;;;12.80;10.73;;;11.20;99.90;;;;;;5034410;28;20034;-73
2021/04/30 09:10:50;;;;;;;11.50;9.98;;;11.10;99.90;;;;;;5017334;28;20688;-73
2021/04/30 09:13:21;;;;;;;15.48;10.38;;;11.30;99.90;;;;;;5035927;28;20107;-73
2021/04/30 09:15:49;;;;;;;12.52;10.52;;;10.80;99.90;;;;;;5033385;28;20383;-73
2021/04/30 09:18:29;;;;;;;14.40;10.15;;;11.00;99.90;;;;;;5016211;28;20026;-74
2021/04/30 09:21:05;;;;;;;11.35;10.15;;;11.40;99.90;;;;;;4998734;28;20022;-75
2021/04/30 09:26:22;;;;;;;13.77;10.55;;;11.60;99.90;;;;;;5030690;28;20503;-71
2021/04/30 09:29:13;;;;;;;11.93;10.05;;;11.50;99.90;;;;;;5014144;28;20026;-70
2021/04/30 09:31:40;;;;;;;12.10;10.80;;;10.80;99.90;;;;;;5020390;28;20080;-72
2021/04/30 09:34:26;;;;;;;14.13;10.68;;;10.50;99.90;;;;;;5033352;28;20283;-72
2021/04/30 09:37:15;;;;;;;12.38;10.02;;;10.80;99.90;;;;;;5028725;28;20025;-71
2021/04/30 09:40:02;;;;;;;14.60;10.15;;;10.90;99.90;;;;;;5024302;28;20022;-72
2021/04/30 09:42:36;;;;;;;14.52;10.38;;;10.80;99.90;;;;;;5014050;28;20026;-73
2021/04/30 09:45:10;;;;;;;15.25;9.98;;;10.80;99.90;;;;;;5014943;28;20026;-72
2021/04/30 09:47:37;;;;;;;11.73;10.10;;;10.80;99.90;;;;;;5014395;28;20022;-72
2021/04/30 09:50:09;;;;;;;13.05;9.55;;;11.10;99.90;;;;;;5026551;28;20045;-72
2021/04/30 09:52:35;;;;;;;11.43;9.55;;;11.60;99.90;;;;;;5034478;28;20132;-70
2021/04/30 09:55:03;;;;;;;10.43;9.32;;;11.40;99.90;;;;;;5020416;28;20170;-73
2021/04/30 09:57:31;;;;;;;10.35;9.27;;;11.60;99.90;;;;;;5014691;28;20022;-72
2021/04/30 10:00:00;;;;;;;14.18;10.32;;;11.80;99.90;;;;;;5014704;28;20022;-72
2021/04/30 10:02:30;;;;;;;13.18;10.57;;;11.80;99.90;;;;;;5014214;28;20104;-71
2021/04/30 10:05:10;;;;;;;12.27;9.85;;;11.90;99.90;;;;;;5013187;28;20048;-73
2021/04/30 10:07:37;;;;;;;13.27;9.43;;;12.20;99.90;;;;;;5014140;28;20030;-72
2021/04/30 10:10:18;;;;;;;11.80;9.88;;;12.50;99.90;;;;;;5015195;28;20073;-72
2021/04/30 10:12:58;;;;;;;14.70;9.98;;;12.00;99.90;;;;;;5022277;28;20062;-71
2021/04/30 10:15:26;;;;;;;11.90;10.23;;;11.60;99.90;;;;;;5018156;28;20045;-72
2021/04/30 10:17:56;;;;;;;20.45;11.35;;;11.30;99.90;;;;;;5035154;28;20048;-72
2021/04/30 10:20:22;;;;;;;12.07;9.80;;;10.80;99.90;;;;;;5034483;28;20523;-71
2021/04/30 10:22:49;;;;;;;13.55;11.70;;;10.60;99.90;;;;;;5033973;28;20037;-72
2021/04/30 10:25:18;;;;;;;12.93;10.95;;;10.70;99.90;;;;;;5033054;28;20036;-71
2021/04/30 10:27:54;;;;;;;15.65;11.07;;;10.60;99.90;;;;;;5031925;28;20096;-71
2021/04/30 10:30:45;;;;;;;16.33;12.18;;;10.50;99.90;;;;;;5033355;28;20026;-72
2021/04/30 10:33:22;;;;;;;15.63;12.35;;;10.40;99.90;;;;;;5020205;28;20483;-70
2021/04/30 10:35:52;;;;;;;14.60;11.55;;;10.10;99.90;;;;;;5028625;28;20093;-71
2021/04/30 10:38:20;;;;;;;16.58;12.43;;;10.10;99.90;;;;;;5002022;28;20013;-71
2021/04/30 10:41:04;;;;;;;17.63;13.60;;;9.60;99.90;;;;;;5032951;28;20043;-72
2021/04/30 10:43:31;;;;;;;23.65;14.48;;;9.50;99.90;;;;;;5033957;28;20025;-72
2021/04/30 10:46:10;;;;;;;18.38;14.13;;;9.50;99.90;;;;;;5015274;28;20395;-71
2021/04/30 10:48:40;;;;;;;18.80;14.90;;;9.40;99.90;;;;;;5032892;28;20065;-72
2021/04/30 10:51:15;;;;;;;19.25;15.30;;;9.50;99.90;;;;;;5032596;28;20105;-72
2021/04/30 10:53:43;;;;;;;26.02;16.88;;;9.50;99.90;;;;;;5031309;28;20032;-72
2021/04/30 10:56:33;;;;;;;23.80;15.23;;;9.50;99.90;;;;;;5014794;28;20018;-72
2021/04/30 10:58:59;;;;;;;19.30;14.35;;;9.30;99.90;;;;;;5021642;28;20018;-71
2021/04/30 11:01:25;;;;;;;22.30;17.17;;;8.90;99.90;;;;;;5013014;28;20053;-72
2021/04/30 11:04:09;;;;;;;20.30;15.60;;;8.70;99.90;;;;;;4995498;28;20026;-71
2021/04/30 11:06:38;;;;;;;19.85;16.40;;;8.40;99.90;;;;;;5013822;28;20120;-73
2021/04/30 11:09:19;;;;;;;21.15;16.55;;;8.70;99.90;;;;;;5026086;28;20089;-72
2021/04/30 11:11:46;;;;;;;22.92;15.82;;;8.50;99.90;;;;;;5031405;28;20029;-74
2021/04/30 11:14:28;;;;;;;19.77;16.25;;;8.50;99.90;;;;;;5028469;28;20029;-73
2021/04/30 11:16:55;;;;;;;20.45;17.27;;;8.40;99.90;;;;;;5012305;28;20513;-72
2021/04/30 11:19:23;;;;;;;20.00;16.50;;;8.70;99.90;;;;;;4993930;28;20377;-71
2021/04/30 11:21:51;;;;;;;21.63;16.48;;;8.80;99.90;;;;;;5011847;28;20026;-71
2021/04/30 11:24:44;;;;;;;23.30;17.50;;;8.50;99.90;;;;;;5011408;28;20100;-72
2021/04/30 11:27:25;;;;;;;26.42;18.08;;;8.30;99.90;;;;;;5011820;28;20108;-70
2021/04/30 11:29:52;;;;;;;22.98;18.35;;;8.30;99.90;;;;;;5011655;28;20041;-71
2021/04/30 11:32:23;;;;;;;23.55;18.13;;;8.10;99.90;;;;;;4993126;28;20032;-71
2021/04/30 11:34:58;;;;;;;28.58;19.02;;;8.10;99.90;;;;;;5010520;28;20041;-71
2021/04/30 11:37:25;;;;;;;30.25;21.50;;;7.90;99.90;;;;;;5012393;28;20021;-72
2021/04/30 11:39:59;;;;;;;28.13;20.38;;;8.00;99.90;;;;;;5012252;28;20456;-73
2021/04/30 11:42:32;;;;;;;28.13;20.10;;;8.00;99.90;;;;;;5013853;28;20086;-74
2021/04/30 11:44:59;;;;;;;28.83;22.08;;;7.70;99.90;;;;;;5030463;28;20036;-71
2021/04/30 11:47:32;;;;;;;28.95;21.45;;;7.80;99.90;;;;;;5033359;28;20036;-72
2021/04/30 11:49:59;;;;;;;32.80;21.77;;;7.80;99.90;;;;;;5021698;28;20025;-71
2021/04/30 11:52:36;;;;;;;27.40;19.70;;;7.80;99.90;;;;;;5013388;28;20056;-72
2021/04/30 11:55:12;;;;;;;31.33;21.08;;;7.70;99.90;;;;;;5026525;28;20589;-72
2021/04/30 11:57:38;;;;;;;34.30;22.38;;;7.40;99.90;;;;;;5034326;28;20021;-72
2021/04/30 12:00:18;;;;;;;29.45;21.75;;;7.50;99.90;;;;;;5027973;28;20077;-71
2021/04/30 12:02:43;;;;;;;31.52;21.45;;;7.70;99.90;;;;;;5010640;28;20026;-73
2021/04/30 12:05:10;;;;;;;31.25;21.73;;;7.70;99.90;;;;;;5031075;28;20021;-71
2021/04/30 12:07:37;;;;;;;32.03;22.10;;;7.70;99.90;;;;;;5032845;28;20030;-71
2021/04/30 12:10:05;;;;;;;29.27;22.27;;;7.50;99.90;;;;;;5032120;28;20396;-71
2021/04/30 12:12:33;;;;;;;32.13;22.50;;;7.40;99.90;;;;;;5031857;28;20025;-72
2021/04/30 12:15:02;;;;;;;37.47;24.08;;;7.50;99.90;;;;;;5031185;28;20566;-71
2021/04/30 12:17:41;;;;;;;33.80;23.40;;;7.50;99.90;;;;;;5028142;28;20087;-71
2021/04/30 12:20:12;;;;;;;28.67;21.83;;;7.60;99.90;;;;;;5032243;28;20633;-70
2021/04/30 12:22:52;;;;;;;26.83;19.45;;;7.70;99.90;;;;;;5033701;28;20049;-71
2021/04/30 12:25:20;;;;;;;25.05;20.52;;;7.70;99.90;;;;;;5035113;28;20029;-72
2021/04/30 12:27:47;;;;;;;22.95;19.15;;;7.90;99.90;;;;;;5018802;28;20123;-71
2021/04/30 12:30:24;;;;;;;27.88;19.83;;;7.70;99.90;;;;;;5035424;28;20022;-71
2021/04/30 12:32:50;;;;;;;26.70;19.65;;;7.80;99.90;;;;;;5035005;28;20480;-71
2021/04/30 12:35:16;;;;;;;34.53;24.30;;;7.70;99.90;;;;;;5035370;28;20029;-73
2021/04/30 12:37:43;;;;;;;26.13;19.60;;;7.70;99.90;;;;;;5016680;28;20025;-71
2021/04/30 12:40:09;;;;;;;59.70;38.88;;;7.30;99.90;;;;;;5018272;28;20022;-76
2021/04/30 12:42:46;;;;;;;80.85;52.80;;;7.40;99.90;;;;;;4978436;28;20030;-74